sensor_id;sensor_type;location;lat;lon;timestamp;P1;durP1;ratioP1;P2;durP2;ratioP2
5965;SDS011;3009;43.224;27.976;2023-04-25T00:02:12;16.47;;;7.40;;
5965;SDS011;3009;43.224;27.976;2023-04-25T00:04:41;10.20;;;5.43;;
5965;SDS011;3009;43.224;27.976;2023-04-25T00:07:10;15.67;;;6.73;;
5965;SDS011;3009;43.224;27.976;2023-04-25T00:09:39;17.37;;;6.60;;
5965;SDS011;3009;43.224;27.976;2023-04-25T00:12:07;16.77;;;6.30;;
5965;SDS011;3009;43.224;27.976;2023-04-25T00:14:35;24.07;;;8.40;;
5965;SDS011;3009;43.224;27.976;2023-04-25T00:17:04;12.47;;;6.13;;
5965;SDS011;3009;43.224;27.976;2023-04-25T00:19:34;17.60;;;6.87;;
5965;SDS011;3009;43.224;27.976;2023-04-25T00:22:04;19.47;;;6.57;;
5965;SDS011;3009;43.224;27.976;2023-04-25T00:24:32;14.17;;;6.70;;
5965;SDS011;3009;43.224;27.976;2023-04-25T00:27:01;17.93;;;6.53;;
5965;SDS011;3009;43.224;27.976;2023-04-25T00:29:29;15.07;;;7.30;;
5965;SDS011;3009;43.224;27.976;2023-04-25T00:31:57;11.13;;;7.00;;
5965;SDS011;3009;43.224;27.976;2023-04-25T00:34:26;11.93;;;6.17;;
5965;SDS011;3009;43.224;27.976;2023-04-25T00:36:55;21.13;;;7.23;;
5965;SDS011;3009;43.224;27.976;2023-04-25T00:39:24;15.40;;;7.73;;
5965;SDS011;3009;43.224;27.976;2023-04-25T00:41:52;19.07;;;7.00;;
5965;SDS011;3009;43.224;27.976;2023-04-25T00:44:22;16.57;;;7.40;;
5965;SDS011;3009;43.224;27.976;2023-04-25T00:46:53;24.23;;;7.53;;
5965;SDS011;3009;43.224;27.976;2023-04-25T00:49:22;16.17;;;6.43;;
5965;SDS011;3009;43.224;27.976;2023-04-25T00:51:50;12.67;;;6.60;;
5965;SDS011;3009;43.224;27.976;2023-04-25T00:54:20;14.10;;;8.17;;
5965;SDS011;3009;43.224;27.976;2023-04-25T00:56:49;12.20;;;6.83;;
5965;SDS011;3009;43.224;27.976;2023-04-25T00:59:19;15.43;;;7.17;;
5965;SDS011;3009;43.224;27.976;2023-04-25T01:01:48;15.57;;;7.87;;
5965;SDS011;3009;43.224;27.976;2023-04-25T01:04:16;28.53;;;8.47;;
5965;SDS011;3009;43.224;27.976;2023-04-25T01:06:45;14.40;;;7.67;;
5965;SDS011;3009;43.224;27.976;2023-04-25T01:09:14;14.20;;;8.10;;
5965;SDS011;3009;43.224;27.976;2023-04-25T01:11:44;23.00;;;8.43;;
5965;SDS011;3009;43.224;27.976;2023-04-25T01:14:12;12.63;;;7.77;;
5965;SDS011;3009;43.224;27.976;2023-04-25T01:16:41;13.10;;;6.73;;
5965;SDS011;3009;43.224;27.976;2023-04-25T01:19:11;15.50;;;6.20;;
5965;SDS011;3009;43.224;27.976;2023-04-25T01:21:44;13.03;;;7.67;;
5965;SDS011;3009;43.224;27.976;2023-04-25T01:24:13;12.60;;;7.57;;
5965;SDS011;3009;43.224;27.976;2023-04-25T01:26:41;16.80;;;7.27;;
5965;SDS011;3009;43.224;27.976;2023-04-25T01:29:16;19.23;;;8.10;;
5965;SDS011;3009;43.224;27.976;2023-04-25T01:31:45;34.57;;;8.00;;
5965;SDS011;3009;43.224;27.976;2023-04-25T01:34:13;13.90;;;7.67;;
5965;SDS011;3009;43.224;27.976;2023-04-25T01:36:43;14.00;;;7.53;;
5965;SDS011;3009;43.224;27.976;2023-04-25T01:39:12;16.00;;;7.90;;
5965;SDS011;3009;43.224;27.976;2023-04-25T01:41:41;16.00;;;8.10;;
5965;SDS011;3009;43.224;27.976;2023-04-25T01:44:10;30.23;;;8.17;;
5965;SDS011;3009;43.224;27.976;2023-04-25T01:46:38;21.37;;;8.60;;
5965;SDS011;3009;43.224;27.976;2023-04-25T01:49:07;19.07;;;7.70;;
5965;SDS011;3009;43.224;27.976;2023-04-25T01:51:35;18.37;;;7.43;;
5965;SDS011;3009;43.224;27.976;2023-04-25T01:54:05;16.63;;;7.53;;
5965;SDS011;3009;43.224;27.976;2023-04-25T01:56:36;17.70;;;8.87;;
5965;SDS011;3009;43.224;27.976;2023-04-25T01:59:05;18.67;;;7.73;;
5965;SDS011;3009;43.224;27.976;2023-04-25T02:01:33;19.63;;;7.70;;
5965;SDS011;3009;43.224;27.976;2023-04-25T02:04:01;21.70;;;8.37;;
5965;SDS011;3009;43.224;27.976;2023-04-25T02:06:30;16.80;;;8.80;;
5965;SDS011;3009;43.224;27.976;2023-04-25T02:08:59;15.87;;;8.07;;
5965;SDS011;3009;43.224;27.976;2023-04-25T02:11:28;67.53;;;9.70;;
5965;SDS011;3009;43.224;27.976;2023-04-25T02:13:57;14.13;;;7.67;;
5965;SDS011;3009;43.224;27.976;2023-04-25T02:16:25;15.90;;;7.90;;
5965;SDS011;3009;43.224;27.976;2023-04-25T02:18:53;14.13;;;7.70;;
5965;SDS011;3009;43.224;27.976;2023-04-25T02:21:22;12.90;;;8.10;;
5965;SDS011;3009;43.224;27.976;2023-04-25T02:23:50;23.13;;;9.03;;
5965;SDS011;3009;43.224;27.976;2023-04-25T02:26:19;21.43;;;8.00;;
5965;SDS011;3009;43.224;27.976;2023-04-25T02:28:49;17.97;;;7.50;;
5965;SDS011;3009;43.224;27.976;2023-04-25T02:31:18;11.10;;;7.10;;
5965;SDS011;3009;43.224;27.976;2023-04-25T02:33:47;19.23;;;9.03;;
5965;SDS011;3009;43.224;27.976;2023-04-25T02:36:16;30.73;;;10.27;;
5965;SDS011;3009;43.224;27.976;2023-04-25T02:38:44;22.50;;;8.33;;
5965;SDS011;3009;43.224;27.976;2023-04-25T02:41:12;22.73;;;8.67;;
5965;SDS011;3009;43.224;27.976;2023-04-25T02:43:42;20.40;;;8.10;;
5965;SDS011;3009;43.224;27.976;2023-04-25T02:46:11;21.10;;;8.57;;
5965;SDS011;3009;43.224;27.976;2023-04-25T02:48:40;15.83;;;8.83;;
5965;SDS011;3009;43.224;27.976;2023-04-25T02:51:09;14.40;;;8.67;;
5965;SDS011;3009;43.224;27.976;2023-04-25T02:53:37;19.40;;;8.37;;
5965;SDS011;3009;43.224;27.976;2023-04-25T02:56:06;22.70;;;9.10;;
5965;SDS011;3009;43.224;27.976;2023-04-25T02:58:34;23.93;;;10.10;;
5965;SDS011;3009;43.224;27.976;2023-04-25T03:01:02;24.70;;;9.40;;
5965;SDS011;3009;43.224;27.976;2023-04-25T03:03:33;15.83;;;9.00;;
5965;SDS011;3009;43.224;27.976;2023-04-25T03:06:01;18.70;;;7.80;;
5965;SDS011;3009;43.224;27.976;2023-04-25T03:08:30;15.63;;;9.00;;
5965;SDS011;3009;43.224;27.976;2023-04-25T03:10:59;16.03;;;8.50;;
5965;SDS011;3009;43.224;27.976;2023-04-25T03:13:27;19.30;;;8.60;;
5965;SDS011;3009;43.224;27.976;2023-04-25T03:15:56;12.73;;;8.40;;
5965;SDS011;3009;43.224;27.976;2023-04-25T03:18:25;18.90;;;9.03;;
5965;SDS011;3009;43.224;27.976;2023-04-25T03:20:55;20.00;;;8.13;;
5965;SDS011;3009;43.224;27.976;2023-04-25T03:23:23;18.70;;;10.40;;
5965;SDS011;3009;43.224;27.976;2023-04-25T03:25:52;14.57;;;9.60;;
5965;SDS011;3009;43.224;27.976;2023-04-25T03:28:20;23.07;;;9.37;;
5965;SDS011;3009;43.224;27.976;2023-04-25T03:30:49;29.00;;;9.07;;
5965;SDS011;3009;43.224;27.976;2023-04-25T03:33:17;26.53;;;10.00;;
5965;SDS011;3009;43.224;27.976;2023-04-25T03:35:46;16.70;;;10.17;;
5965;SDS011;3009;43.224;27.976;2023-04-25T03:38:15;19.10;;;10.60;;
5965;SDS011;3009;43.224;27.976;2023-04-25T03:40:44;24.07;;;9.20;;
5965;SDS011;3009;43.224;27.976;2023-04-25T03:43:13;16.80;;;10.00;;
5965;SDS011;3009;43.224;27.976;2023-04-25T03:45:41;16.07;;;9.10;;
5965;SDS011;3009;43.224;27.976;2023-04-25T03:48:10;23.50;;;9.50;;
5965;SDS011;3009;43.224;27.976;2023-04-25T03:50:39;21.27;;;9.97;;
5965;SDS011;3009;43.224;27.976;2023-04-25T03:53:07;18.87;;;9.40;;
5965;SDS011;3009;43.224;27.976;2023-04-25T03:55:37;23.80;;;10.50;;
5965;SDS011;3009;43.224;27.976;2023-04-25T03:58:09;19.30;;;9.30;;
5965;SDS011;3009;43.224;27.976;2023-04-25T04:00:37;20.30;;;9.60;;
5965;SDS011;3009;43.224;27.976;2023-04-25T04:03:05;15.17;;;8.73;;
5965;SDS011;3009;43.224;27.976;2023-04-25T04:05:34;20.80;;;9.03;;
5965;SDS011;3009;43.224;27.976;2023-04-25T04:08:03;21.90;;;9.77;;
5965;SDS011;3009;43.224;27.976;2023-04-25T04:10:32;19.50;;;9.87;;
5965;SDS011;3009;43.224;27.976;2023-04-25T04:13:02;24.40;;;9.50;;
5965;SDS011;3009;43.224;27.976;2023-04-25T04:15:31;27.07;;;11.23;;
5965;SDS011;3009;43.224;27.976;2023-04-25T04:17:59;26.07;;;11.30;;
5965;SDS011;3009;43.224;27.976;2023-04-25T04:20:29;24.37;;;11.87;;
5965;SDS011;3009;43.224;27.976;2023-04-25T04:22:58;21.63;;;10.47;;
5965;SDS011;3009;43.224;27.976;2023-04-25T04:25:26;11.90;;;8.17;;
5965;SDS011;3009;43.224;27.976;2023-04-25T04:27:55;16.97;;;7.47;;
5965;SDS011;3009;43.224;27.976;2023-04-25T04:30:25;24.73;;;8.17;;
5965;SDS011;3009;43.224;27.976;2023-04-25T04:32:56;13.10;;;6.87;;
5965;SDS011;3009;43.224;27.976;2023-04-25T04:35:24;20.80;;;6.70;;
5965;SDS011;3009;43.224;27.976;2023-04-25T04:37:53;16.20;;;6.43;;
5965;SDS011;3009;43.224;27.976;2023-04-25T04:40:22;7.03;;;6.40;;
5965;SDS011;3009;43.224;27.976;2023-04-25T04:42:50;12.00;;;8.17;;
5965;SDS011;3009;43.224;27.976;2023-04-25T04:45:19;17.20;;;7.87;;
5965;SDS011;3009;43.224;27.976;2023-04-25T04:47:50;15.17;;;7.43;;
5965;SDS011;3009;43.224;27.976;2023-04-25T04:50:19;19.50;;;7.00;;
5965;SDS011;3009;43.224;27.976;2023-04-25T04:52:47;18.73;;;7.10;;
5965;SDS011;3009;43.224;27.976;2023-04-25T04:55:15;15.90;;;7.47;;
5965;SDS011;3009;43.224;27.976;2023-04-25T04:57:43;24.13;;;6.67;;
5965;SDS011;3009;43.224;27.976;2023-04-25T05:00:12;13.93;;;6.83;;
5965;SDS011;3009;43.224;27.976;2023-04-25T05:02:42;16.60;;;7.57;;
5965;SDS011;3009;43.224;27.976;2023-04-25T05:05:12;21.27;;;7.20;;
5965;SDS011;3009;43.224;27.976;2023-04-25T05:07:40;10.67;;;6.50;;
5965;SDS011;3009;43.224;27.976;2023-04-25T05:10:09;15.30;;;7.20;;
5965;SDS011;3009;43.224;27.976;2023-04-25T05:12:37;12.50;;;7.37;;
5965;SDS011;3009;43.224;27.976;2023-04-25T05:15:06;12.20;;;7.20;;
5965;SDS011;3009;43.224;27.976;2023-04-25T05:17:35;10.07;;;6.47;;
5965;SDS011;3009;43.224;27.976;2023-04-25T05:20:04;11.40;;;6.70;;
5965;SDS011;3009;43.224;27.976;2023-04-25T05:22:34;15.40;;;7.73;;
5965;SDS011;3009;43.224;27.976;2023-04-25T05:25:04;15.30;;;6.77;;
5965;SDS011;3009;43.224;27.976;2023-04-25T05:27:33;14.87;;;6.40;;
5965;SDS011;3009;43.224;27.976;2023-04-25T05:30:01;11.53;;;6.50;;
5965;SDS011;3009;43.224;27.976;2023-04-25T05:32:30;15.90;;;6.77;;
5965;SDS011;3009;43.224;27.976;2023-04-25T05:34:59;17.50;;;7.47;;
5965;SDS011;3009;43.224;27.976;2023-04-25T05:37:27;17.23;;;8.10;;
5965;SDS011;3009;43.224;27.976;2023-04-25T05:39:58;9.63;;;7.43;;
5965;SDS011;3009;43.224;27.976;2023-04-25T05:42:26;15.57;;;7.57;;
5965;SDS011;3009;43.224;27.976;2023-04-25T05:44:54;13.53;;;7.23;;
5965;SDS011;3009;43.224;27.976;2023-04-25T05:47:23;7.80;;;7.00;;
5965;SDS011;3009;43.224;27.976;2023-04-25T05:49:51;12.70;;;7.30;;
5965;SDS011;3009;43.224;27.976;2023-04-25T05:52:19;11.73;;;7.80;;
5965;SDS011;3009;43.224;27.976;2023-04-25T05:54:48;11.30;;;6.83;;
5965;SDS011;3009;43.224;27.976;2023-04-25T05:57:21;12.70;;;7.70;;
5965;SDS011;3009;43.224;27.976;2023-04-25T05:59:50;12.93;;;8.30;;
5965;SDS011;3009;43.224;27.976;2023-04-25T06:02:19;12.17;;;7.20;;
5965;SDS011;3009;43.224;27.976;2023-04-25T06:04:49;9.67;;;7.43;;
5965;SDS011;3009;43.224;27.976;2023-04-25T06:07:18;11.13;;;7.60;;
5965;SDS011;3009;43.224;27.976;2023-04-25T06:09:47;10.10;;;7.50;;
5965;SDS011;3009;43.224;27.976;2023-04-25T06:12:15;9.33;;;7.70;;
5965;SDS011;3009;43.224;27.976;2023-04-25T06:14:45;12.83;;;7.23;;
5965;SDS011;3009;43.224;27.976;2023-04-25T06:17:14;12.23;;;7.80;;
5965;SDS011;3009;43.224;27.976;2023-04-25T06:19:42;10.53;;;8.10;;
5965;SDS011;3009;43.224;27.976;2023-04-25T06:22:10;10.13;;;7.30;;
5965;SDS011;3009;43.224;27.976;2023-04-25T06:24:39;8.47;;;6.83;;
5965;SDS011;3009;43.224;27.976;2023-04-25T06:27:07;13.00;;;8.13;;
5965;SDS011;3009;43.224;27.976;2023-04-25T06:29:35;21.00;;;8.40;;
5965;SDS011;3009;43.224;27.976;2023-04-25T06:32:05;12.00;;;7.17;;
5965;SDS011;3009;43.224;27.976;2023-04-25T06:34:33;14.13;;;7.80;;
5965;SDS011;3009;43.224;27.976;2023-04-25T06:37:02;21.80;;;8.20;;
5965;SDS011;3009;43.224;27.976;2023-04-25T06:39:30;23.73;;;8.20;;
5965;SDS011;3009;43.224;27.976;2023-04-25T06:41:59;12.33;;;7.67;;
5965;SDS011;3009;43.224;27.976;2023-04-25T06:44:27;12.20;;;7.83;;
5965;SDS011;3009;43.224;27.976;2023-04-25T06:46:56;19.00;;;9.53;;
5965;SDS011;3009;43.224;27.976;2023-04-25T06:49:26;17.53;;;9.00;;
5965;SDS011;3009;43.224;27.976;2023-04-25T06:51:54;15.53;;;8.97;;
5965;SDS011;3009;43.224;27.976;2023-04-25T06:54:22;8.80;;;7.90;;
5965;SDS011;3009;43.224;27.976;2023-04-25T06:56:53;16.13;;;8.00;;
5965;SDS011;3009;43.224;27.976;2023-04-25T06:59:21;16.00;;;8.70;;
5965;SDS011;3009;43.224;27.976;2023-04-25T07:01:50;14.43;;;8.67;;
5965;SDS011;3009;43.224;27.976;2023-04-25T07:04:18;18.83;;;8.63;;
5965;SDS011;3009;43.224;27.976;2023-04-25T07:06:48;13.10;;;8.27;;
5965;SDS011;3009;43.224;27.976;2023-04-25T07:09:17;15.23;;;8.20;;
5965;SDS011;3009;43.224;27.976;2023-04-25T07:11:45;11.60;;;8.10;;
5965;SDS011;3009;43.224;27.976;2023-04-25T07:14:13;10.30;;;8.30;;
5965;SDS011;3009;43.224;27.976;2023-04-25T07:16:41;13.67;;;8.43;;
5965;SDS011;3009;43.224;27.976;2023-04-25T07:19:10;7.33;;;6.50;;
5965;SDS011;3009;43.224;27.976;2023-04-25T07:21:39;9.00;;;7.60;;
5965;SDS011;3009;43.224;27.976;2023-04-25T07:24:09;12.93;;;8.13;;
5965;SDS011;3009;43.224;27.976;2023-04-25T07:26:37;12.93;;;8.07;;
5965;SDS011;3009;43.224;27.976;2023-04-25T07:29:06;12.07;;;8.60;;
5965;SDS011;3009;43.224;27.976;2023-04-25T07:31:34;15.13;;;8.93;;
5965;SDS011;3009;43.224;27.976;2023-04-25T07:34:03;11.70;;;7.80;;
5965;SDS011;3009;43.224;27.976;2023-04-25T07:36:32;9.27;;;8.10;;
5965;SDS011;3009;43.224;27.976;2023-04-25T07:39:00;12.50;;;7.77;;
5965;SDS011;3009;43.224;27.976;2023-04-25T07:41:31;10.90;;;7.80;;
5965;SDS011;3009;43.224;27.976;2023-04-25T07:43:59;12.73;;;9.00;;
5965;SDS011;3009;43.224;27.976;2023-04-25T07:46:27;19.50;;;8.33;;
5965;SDS011;3009;43.224;27.976;2023-04-25T07:48:56;11.13;;;7.80;;
5965;SDS011;3009;43.224;27.976;2023-04-25T07:51:24;12.93;;;9.07;;
5965;SDS011;3009;43.224;27.976;2023-04-25T07:53:53;12.83;;;8.90;;
5965;SDS011;3009;43.224;27.976;2023-04-25T07:56:21;17.90;;;10.90;;
5965;SDS011;3009;43.224;27.976;2023-04-25T07:58:51;18.10;;;8.93;;
5965;SDS011;3009;43.224;27.976;2023-04-25T08:01:19;12.00;;;8.57;;
5965;SDS011;3009;43.224;27.976;2023-04-25T08:03:48;18.40;;;8.80;;
5965;SDS011;3009;43.224;27.976;2023-04-25T08:06:17;12.50;;;8.70;;
5965;SDS011;3009;43.224;27.976;2023-04-25T08:08:46;12.50;;;8.87;;
5965;SDS011;3009;43.224;27.976;2023-04-25T08:11:14;19.10;;;10.00;;
5965;SDS011;3009;43.224;27.976;2023-04-25T08:13:43;14.20;;;9.50;;
5965;SDS011;3009;43.224;27.976;2023-04-25T08:16:13;9.83;;;8.30;;
5965;SDS011;3009;43.224;27.976;2023-04-25T08:18:41;17.63;;;9.37;;
5965;SDS011;3009;43.224;27.976;2023-04-25T08:21:10;17.20;;;10.23;;
5965;SDS011;3009;43.224;27.976;2023-04-25T08:23:38;13.10;;;8.83;;
5965;SDS011;3009;43.224;27.976;2023-04-25T08:26:08;14.63;;;9.53;;
5965;SDS011;3009;43.224;27.976;2023-04-25T08:28:36;14.17;;;9.80;;
5965;SDS011;3009;43.224;27.976;2023-04-25T08:31:05;16.57;;;9.37;;
5965;SDS011;3009;43.224;27.976;2023-04-25T08:33:35;12.17;;;9.73;;
5965;SDS011;3009;43.224;27.976;2023-04-25T08:36:04;16.33;;;8.70;;
5965;SDS011;3009;43.224;27.976;2023-04-25T08:38:32;9.60;;;8.70;;
5965;SDS011;3009;43.224;27.976;2023-04-25T08:41:00;10.80;;;8.20;;
5965;SDS011;3009;43.224;27.976;2023-04-25T08:43:29;11.00;;;9.00;;
5965;SDS011;3009;43.224;27.976;2023-04-25T08:45:58;23.63;;;9.17;;
5965;SDS011;3009;43.224;27.976;2023-04-25T08:48:28;8.90;;;7.97;;
5965;SDS011;3009;43.224;27.976;2023-04-25T08:50:57;9.97;;;8.50;;
5965;SDS011;3009;43.224;27.976;2023-04-25T08:53:27;12.60;;;9.00;;
5965;SDS011;3009;43.224;27.976;2023-04-25T08:55:59;9.47;;;7.73;;
5965;SDS011;3009;43.224;27.976;2023-04-25T08:58:29;11.77;;;7.87;;
5965;SDS011;3009;43.224;27.976;2023-04-25T09:00:58;8.57;;;7.27;;
5965;SDS011;3009;43.224;27.976;2023-04-25T09:03:26;12.47;;;7.47;;
5965;SDS011;3009;43.224;27.976;2023-04-25T09:05:55;14.10;;;9.67;;
5965;SDS011;3009;43.224;27.976;2023-04-25T09:08:25;12.57;;;7.20;;
5965;SDS011;3009;43.224;27.976;2023-04-25T09:10:54;10.80;;;7.40;;
5965;SDS011;3009;43.224;27.976;2023-04-25T09:13:24;11.00;;;7.43;;
5965;SDS011;3009;43.224;27.976;2023-04-25T09:15:55;9.03;;;7.20;;
5965;SDS011;3009;43.224;27.976;2023-04-25T09:18:25;12.83;;;7.00;;
5965;SDS011;3009;43.224;27.976;2023-04-25T09:20:58;7.13;;;6.30;;
5965;SDS011;3009;43.224;27.976;2023-04-25T09:23:40;8.27;;;6.90;;
5965;SDS011;3009;43.224;27.976;2023-04-25T09:26:13;11.27;;;6.83;;
5965;SDS011;3009;43.224;27.976;2023-04-25T09:28:43;10.60;;;7.00;;
5965;SDS011;3009;43.224;27.976;2023-04-25T09:31:12;7.10;;;6.50;;
5965;SDS011;3009;43.224;27.976;2023-04-25T09:33:48;6.87;;;6.17;;
5965;SDS011;3009;43.224;27.976;2023-04-25T09:36:23;7.10;;;6.50;;
5965;SDS011;3009;43.224;27.976;2023-04-25T09:38:54;10.53;;;6.40;;
5965;SDS011;3009;43.224;27.976;2023-04-25T09:41:23;9.43;;;7.13;;
5965;SDS011;3009;43.224;27.976;2023-04-25T09:43:52;8.63;;;6.87;;
5965;SDS011;3009;43.224;27.976;2023-04-25T09:46:32;7.63;;;7.00;;
5965;SDS011;3009;43.224;27.976;2023-04-25T09:49:05;7.80;;;6.70;;
5965;SDS011;3009;43.224;27.976;2023-04-25T09:51:35;14.00;;;6.30;;
5965;SDS011;3009;43.224;27.976;2023-04-25T09:54:04;9.33;;;6.33;;
5965;SDS011;3009;43.224;27.976;2023-04-25T09:56:33;7.20;;;6.17;;
5965;SDS011;3009;43.224;27.976;2023-04-25T09:59:04;6.93;;;6.20;;
5965;SDS011;3009;43.224;27.976;2023-04-25T10:01:34;7.10;;;6.50;;
5965;SDS011;3009;43.224;27.976;2023-04-25T10:04:05;7.90;;;6.33;;
5965;SDS011;3009;43.224;27.976;2023-04-25T10:06:38;10.90;;;6.50;;
5965;SDS011;3009;43.224;27.976;2023-04-25T10:09:07;10.90;;;6.30;;
5965;SDS011;3009;43.224;27.976;2023-04-25T10:11:36;8.37;;;6.93;;
5965;SDS011;3009;43.224;27.976;2023-04-25T10:14:06;8.70;;;6.90;;
5965;SDS011;3009;43.224;27.976;2023-04-25T10:16:34;10.43;;;7.60;;
5965;SDS011;3009;43.224;27.976;2023-04-25T10:19:04;9.07;;;6.90;;
5965;SDS011;3009;43.224;27.976;2023-04-25T10:21:32;10.40;;;6.77;;
5965;SDS011;3009;43.224;27.976;2023-04-25T10:24:04;10.10;;;6.53;;
5965;SDS011;3009;43.224;27.976;2023-04-25T10:26:33;9.70;;;6.97;;
5965;SDS011;3009;43.224;27.976;2023-04-25T10:29:02;7.20;;;5.93;;
5965;SDS011;3009;43.224;27.976;2023-04-25T10:31:31;7.00;;;6.13;;
5965;SDS011;3009;43.224;27.976;2023-04-25T10:34:00;10.53;;;8.10;;
5965;SDS011;3009;43.224;27.976;2023-04-25T10:36:30;12.50;;;7.10;;
5965;SDS011;3009;43.224;27.976;2023-04-25T10:39:04;7.67;;;6.97;;
5965;SDS011;3009;43.224;27.976;2023-04-25T10:41:48;7.73;;;6.30;;
5965;SDS011;3009;43.224;27.976;2023-04-25T10:44:21;7.03;;;6.33;;
5965;SDS011;3009;43.224;27.976;2023-04-25T10:46:49;9.00;;;7.00;;
5965;SDS011;3009;43.224;27.976;2023-04-25T10:49:31;11.20;;;6.50;;
5965;SDS011;3009;43.224;27.976;2023-04-25T10:52:17;8.37;;;7.30;;
5965;SDS011;3009;43.224;27.976;2023-04-25T10:54:48;9.30;;;7.53;;
5965;SDS011;3009;43.224;27.976;2023-04-25T10:57:28;11.20;;;7.10;;
5965;SDS011;3009;43.224;27.976;2023-04-25T10:59:58;11.60;;;6.90;;
5965;SDS011;3009;43.224;27.976;2023-04-25T11:02:27;8.30;;;6.33;;
5965;SDS011;3009;43.224;27.976;2023-04-25T11:04:56;8.67;;;7.50;;
5965;SDS011;3009;43.224;27.976;2023-04-25T11:07:26;7.70;;;6.67;;
5965;SDS011;3009;43.224;27.976;2023-04-25T11:10:04;9.90;;;6.60;;
5965;SDS011;3009;43.224;27.976;2023-04-25T11:12:33;13.73;;;7.57;;
5965;SDS011;3009;43.224;27.976;2023-04-25T11:15:02;10.63;;;7.50;;
5965;SDS011;3009;43.224;27.976;2023-04-25T11:17:31;8.50;;;7.13;;
5965;SDS011;3009;43.224;27.976;2023-04-25T11:20:00;9.73;;;6.93;;
5965;SDS011;3009;43.224;27.976;2023-04-25T11:22:30;9.13;;;7.50;;
5965;SDS011;3009;43.224;27.976;2023-04-25T11:25:05;10.20;;;7.50;;
5965;SDS011;3009;43.224;27.976;2023-04-25T11:27:34;7.83;;;7.03;;
5965;SDS011;3009;43.224;27.976;2023-04-25T11:30:10;7.87;;;7.10;;
5965;SDS011;3009;43.224;27.976;2023-04-25T11:32:40;24.37;;;7.60;;
5965;SDS011;3009;43.224;27.976;2023-04-25T11:35:09;12.20;;;7.70;;
5965;SDS011;3009;43.224;27.976;2023-04-25T11:37:38;9.03;;;7.93;;
5965;SDS011;3009;43.224;27.976;2023-04-25T11:40:08;7.57;;;6.87;;
5965;SDS011;3009;43.224;27.976;2023-04-25T11:42:38;8.27;;;6.60;;
5965;SDS011;3009;43.224;27.976;2023-04-25T11:45:07;7.33;;;6.57;;
5965;SDS011;3009;43.224;27.976;2023-04-25T11:47:36;10.97;;;7.47;;
5965;SDS011;3009;43.224;27.976;2023-04-25T11:50:06;13.33;;;6.90;;
5965;SDS011;3009;43.224;27.976;2023-04-25T11:52:36;13.93;;;6.83;;
5965;SDS011;3009;43.224;27.976;2023-04-25T11:55:06;10.40;;;6.30;;
5965;SDS011;3009;43.224;27.976;2023-04-25T11:57:37;6.50;;;6.00;;
5965;SDS011;3009;43.224;27.976;2023-04-25T12:00:08;7.03;;;6.37;;
5965;SDS011;3009;43.224;27.976;2023-04-25T12:02:43;12.07;;;6.17;;
5965;SDS011;3009;43.224;27.976;2023-04-25T12:05:14;8.63;;;6.07;;
5965;SDS011;3009;43.224;27.976;2023-04-25T12:07:58;6.43;;;5.93;;
5965;SDS011;3009;43.224;27.976;2023-04-25T12:10:39;8.70;;;5.90;;
5965;SDS011;3009;43.224;27.976;2023-04-25T12:13:19;6.53;;;5.93;;
5965;SDS011;3009;43.224;27.976;2023-04-25T12:15:48;6.33;;;5.73;;
5965;SDS011;3009;43.224;27.976;2023-04-25T12:18:18;7.00;;;6.40;;
5965;SDS011;3009;43.224;27.976;2023-04-25T12:20:48;11.47;;;5.90;;
5965;SDS011;3009;43.224;27.976;2023-04-25T12:23:16;6.90;;;6.30;;
5965;SDS011;3009;43.224;27.976;2023-04-25T12:25:46;10.57;;;6.53;;
5965;SDS011;3009;43.224;27.976;2023-04-25T12:28:16;6.33;;;5.90;;
5965;SDS011;3009;43.224;27.976;2023-04-25T12:30:52;8.13;;;7.00;;
5965;SDS011;3009;43.224;27.976;2023-04-25T12:33:25;12.23;;;7.07;;
5965;SDS011;3009;43.224;27.976;2023-04-25T12:35:54;9.07;;;7.00;;
5965;SDS011;3009;43.224;27.976;2023-04-25T12:38:24;7.30;;;6.60;;
5965;SDS011;3009;43.224;27.976;2023-04-25T12:40:55;7.20;;;6.50;;
5965;SDS011;3009;43.224;27.976;2023-04-25T12:43:24;7.87;;;7.13;;
5965;SDS011;3009;43.224;27.976;2023-04-25T12:45:53;11.83;;;7.47;;
5965;SDS011;3009;43.224;27.976;2023-04-25T12:48:22;11.80;;;8.37;;
5965;SDS011;3009;43.224;27.976;2023-04-25T12:50:51;9.97;;;7.90;;
5965;SDS011;3009;43.224;27.976;2023-04-25T12:53:20;9.10;;;7.37;;
5965;SDS011;3009;43.224;27.976;2023-04-25T12:55:50;11.87;;;8.50;;
5965;SDS011;3009;43.224;27.976;2023-04-25T12:58:25;10.23;;;9.23;;
5965;SDS011;3009;43.224;27.976;2023-04-25T13:00:53;11.70;;;8.07;;
5965;SDS011;3009;43.224;27.976;2023-04-25T13:03:21;10.40;;;8.17;;
5965;SDS011;3009;43.224;27.976;2023-04-25T13:05:50;12.10;;;8.20;;
5965;SDS011;3009;43.224;27.976;2023-04-25T13:08:19;12.43;;;8.43;;
5965;SDS011;3009;43.224;27.976;2023-04-25T13:10:47;12.97;;;8.80;;
5965;SDS011;3009;43.224;27.976;2023-04-25T13:13:15;10.97;;;8.33;;
5965;SDS011;3009;43.224;27.976;2023-04-25T13:15:45;9.77;;;8.73;;
5965;SDS011;3009;43.224;27.976;2023-04-25T13:18:14;17.93;;;8.73;;
5965;SDS011;3009;43.224;27.976;2023-04-25T13:20:43;10.53;;;8.37;;
5965;SDS011;3009;43.224;27.976;2023-04-25T13:23:12;11.67;;;9.13;;
5965;SDS011;3009;43.224;27.976;2023-04-25T13:25:41;10.27;;;8.73;;
5965;SDS011;3009;43.224;27.976;2023-04-25T13:28:09;21.57;;;9.30;;
5965;SDS011;3009;43.224;27.976;2023-04-25T13:30:37;9.87;;;8.60;;
5965;SDS011;3009;43.224;27.976;2023-04-25T13:33:07;11.90;;;8.50;;
5965;SDS011;3009;43.224;27.976;2023-04-25T13:35:37;15.67;;;8.30;;
5965;SDS011;3009;43.224;27.976;2023-04-25T13:38:06;14.30;;;9.23;;
5965;SDS011;3009;43.224;27.976;2023-04-25T13:40:35;15.43;;;9.23;;
5965;SDS011;3009;43.224;27.976;2023-04-25T13:43:03;10.57;;;9.00;;
5965;SDS011;3009;43.224;27.976;2023-04-25T13:45:32;10.20;;;9.20;;
5965;SDS011;3009;43.224;27.976;2023-04-25T13:48:01;13.90;;;9.43;;
5965;SDS011;3009;43.224;27.976;2023-04-25T13:50:31;13.30;;;10.13;;
5965;SDS011;3009;43.224;27.976;2023-04-25T13:52:59;15.50;;;9.70;;
5965;SDS011;3009;43.224;27.976;2023-04-25T13:55:27;12.70;;;10.27;;
5965;SDS011;3009;43.224;27.976;2023-04-25T13:57:56;13.03;;;9.60;;
5965;SDS011;3009;43.224;27.976;2023-04-25T14:00:25;11.07;;;9.57;;
5965;SDS011;3009;43.224;27.976;2023-04-25T14:02:53;12.47;;;9.57;;
5965;SDS011;3009;43.224;27.976;2023-04-25T14:05:21;12.07;;;10.00;;
5965;SDS011;3009;43.224;27.976;2023-04-25T14:07:51;21.63;;;10.17;;
5965;SDS011;3009;43.224;27.976;2023-04-25T14:10:19;11.03;;;9.90;;
5965;SDS011;3009;43.224;27.976;2023-04-25T14:12:48;15.03;;;11.10;;
5965;SDS011;3009;43.224;27.976;2023-04-25T14:15:16;19.63;;;11.80;;
5965;SDS011;3009;43.224;27.976;2023-04-25T14:17:44;14.23;;;10.83;;
5965;SDS011;3009;43.224;27.976;2023-04-25T14:20:14;20.40;;;11.70;;
5965;SDS011;3009;43.224;27.976;2023-04-25T14:22:46;15.33;;;11.07;;
5965;SDS011;3009;43.224;27.976;2023-04-25T14:25:16;18.77;;;10.83;;
5965;SDS011;3009;43.224;27.976;2023-04-25T14:27:45;21.33;;;11.43;;
5965;SDS011;3009;43.224;27.976;2023-04-25T14:30:16;15.90;;;11.20;;
5965;SDS011;3009;43.224;27.976;2023-04-25T14:32:45;17.67;;;11.30;;
5965;SDS011;3009;43.224;27.976;2023-04-25T14:35:13;17.67;;;11.70;;
5965;SDS011;3009;43.224;27.976;2023-04-25T14:37:42;15.47;;;11.83;;
5965;SDS011;3009;43.224;27.976;2023-04-25T14:40:11;16.93;;;10.83;;
5965;SDS011;3009;43.224;27.976;2023-04-25T14:42:43;18.03;;;11.83;;
5965;SDS011;3009;43.224;27.976;2023-04-25T14:45:11;13.20;;;9.80;;
5965;SDS011;3009;43.224;27.976;2023-04-25T14:47:39;15.80;;;10.10;;
5965;SDS011;3009;43.224;27.976;2023-04-25T14:50:08;14.10;;;10.20;;
5965;SDS011;3009;43.224;27.976;2023-04-25T14:52:37;16.83;;;10.03;;
5965;SDS011;3009;43.224;27.976;2023-04-25T14:55:06;9.80;;;8.90;;
5965;SDS011;3009;43.224;27.976;2023-04-25T14:57:35;12.87;;;9.50;;
5965;SDS011;3009;43.224;27.976;2023-04-25T15:00:05;16.93;;;11.20;;
5965;SDS011;3009;43.224;27.976;2023-04-25T15:02:36;11.77;;;9.93;;